createdAt,value
2022-12-18T00:00:09.665Z,12.07
2022-12-18T00:02:43.445Z,11.60
2022-12-18T00:05:11.776Z,11.07
2022-12-18T00:07:39.845Z,9.93
2022-12-18T00:10:09.060Z,11.50
2022-12-18T00:12:38.447Z,11.50
2022-12-18T00:15:09.480Z,12.50
2022-12-18T00:17:37.503Z,12.55
2022-12-18T00:20:06.218Z,14.10
2022-12-18T00:22:34.534Z,12.27
2022-12-18T00:25:02.572Z,11.20
2022-12-18T00:27:30.816Z,10.40
2022-12-18T00:30:00.171Z,13.50
2022-12-18T00:32:28.371Z,12.48
2022-12-18T00:34:57.048Z,12.82
2022-12-18T00:37:26.155Z,12.38
2022-12-18T00:39:54.613Z,13.60
2022-12-18T00:42:40.230Z,14.60
2022-12-18T00:45:12.944Z,12.70
2022-12-18T00:47:42.257Z,13.43
2022-12-18T00:50:11.685Z,13.40
2022-12-18T00:52:39.676Z,12.48
2022-12-18T00:55:08.991Z,11.27
2022-12-18T00:57:37.358Z,12.07
2022-12-18T01:00:07.312Z,11.98
2022-12-18T01:02:38.406Z,12.75
2022-12-18T01:05:08.706Z,13.85
2022-12-18T01:07:36.673Z,11.15
2022-12-18T01:10:06.309Z,11.48
2022-12-18T01:12:36.575Z,14.02
2022-12-18T01:15:06.299Z,12.20
2022-12-18T01:17:34.521Z,15.60
2022-12-18T01:20:04.689Z,13.18
2022-12-18T01:22:35.506Z,14.80
2022-12-18T01:25:04.625Z,13.13
2022-12-18T01:27:33.648Z,12.45
2022-12-18T01:30:02.060Z,15.43
2022-12-18T01:32:32.567Z,12.30
2022-12-18T01:35:00.613Z,14.10
2022-12-18T01:37:30.442Z,11.45
2022-12-18T01:39:58.552Z,11.40
2022-12-18T01:42:27.269Z,13.38
2022-12-18T01:44:59.574Z,10.70
2022-12-18T01:47:32.894Z,11.95
2022-12-18T01:50:03.992Z,10.27
2022-12-18T01:52:35.148Z,12.23
2022-12-18T01:55:05.932Z,9.75
2022-12-18T01:57:34.485Z,13.32
2022-12-18T02:00:10.022Z,9.55
2022-12-18T02:02:46.078Z,10.52
2022-12-18T02:05:17.476Z,9.98
2022-12-18T02:07:57.528Z,12.13
2022-12-18T02:10:31.947Z,11.75
2022-12-18T02:13:09.226Z,10.90
2022-12-18T02:15:45.319Z,11.23
2022-12-18T02:18:19.505Z,9.13
2022-12-18T02:20:55.087Z,10.10
2022-12-18T02:23:44.406Z,10.43
2022-12-18T02:26:21.589Z,10.55
2022-12-18T02:28:57.361Z,8.50
2022-12-18T02:31:32.487Z,10.57
2022-12-18T02:34:04.612Z,11.88
2022-12-18T02:36:40.326Z,11.00
2022-12-18T02:39:13.720Z,10.77
2022-12-18T02:41:51.106Z,12.38
2022-12-18T02:44:19.762Z,10.75
2022-12-18T02:46:51.111Z,10.45
2022-12-18T02:49:32.841Z,9.90
2022-12-18T02:52:09.548Z,9.80
2022-12-18T02:54:54.161Z,8.45
2022-12-18T02:57:34.025Z,9.57
2022-12-18T03:00:07.029Z,10.85
2022-12-18T03:02:46.875Z,11.38
2022-12-18T03:05:19.210Z,9.73
2022-12-18T03:07:53.713Z,10.23
2022-12-18T03:10:28.642Z,10.85
2022-12-18T03:13:04.972Z,9.73
2022-12-18T03:15:37.535Z,9.45
2022-12-18T03:18:17.130Z,9.35
2022-12-18T03:20:48.883Z,10.90
2022-12-18T03:23:26.436Z,9.35
2022-12-18T03:26:00.845Z,10.57
2022-12-18T03:28:39.691Z,9.65
2022-12-18T03:31:12.205Z,8.75
2022-12-18T03:33:43.526Z,10.82
2022-12-18T03:36:12.018Z,10.75
2022-12-18T03:38:40.818Z,8.43
2022-12-18T03:41:18.072Z,11.38
2022-12-18T03:44:32.641Z,13.30
2022-12-18T03:47:08.440Z,10.63
2022-12-18T03:49:42.214Z,9.20
2022-12-18T03:52:15.913Z,9.30
2022-12-18T03:54:45.574Z,13.10
2022-12-18T03:57:20.193Z,9.63
2022-12-18T03:59:54.150Z,8.13
2022-12-18T04:02:27.038Z,10.07
2022-12-18T04:05:00.780Z,8.95
2022-12-18T04:07:29.724Z,8.20
2022-12-18T04:10:01.966Z,9.20
2022-12-18T04:12:33.085Z,7.10
2022-12-18T04:15:03.335Z,8.35
2022-12-18T04:17:31.372Z,9.35
2022-12-18T04:19:59.855Z,8.60
2022-12-18T04:22:28.005Z,6.78
2022-12-18T04:25:01.276Z,9.35
2022-12-18T04:27:37.173Z,11.43
2022-12-18T04:30:09.491Z,9.43
2022-12-18T04:32:37.594Z,10.30
2022-12-18T04:35:08.790Z,11.45
2022-12-18T04:37:37.293Z,8.32
2022-12-18T04:40:08.242Z,8.63
2022-12-18T04:42:42.329Z,7.05
2022-12-18T04:45:12.482Z,9.27
2022-12-18T04:47:40.540Z,11.70
2022-12-18T04:50:09.692Z,12.45
2022-12-18T04:52:37.879Z,10.65
2022-12-18T04:55:06.737Z,12.40
2022-12-18T04:57:34.897Z,12.80
2022-12-18T05:00:03.167Z,10.88
2022-12-18T05:02:32.878Z,10.95
2022-12-18T05:05:01.113Z,11.00
2022-12-18T05:07:29.049Z,12.40
2022-12-18T05:09:57.065Z,10.60
2022-12-18T05:12:25.122Z,9.25
2022-12-18T05:14:53.509Z,9.25
2022-12-18T05:17:21.529Z,9.65
2022-12-18T05:19:51.295Z,9.85
2022-12-18T05:22:19.249Z,10.45
2022-12-18T05:24:47.321Z,9.88
2022-12-18T05:27:15.602Z,10.55
2022-12-18T05:29:43.881Z,10.90
2022-12-18T05:32:12.080Z,11.15
2022-12-18T05:34:40.095Z,11.32
2022-12-18T05:37:09.514Z,9.73
2022-12-18T05:39:37.590Z,11.25
2022-12-18T05:42:05.660Z,9.60
2022-12-18T05:44:33.724Z,8.85
2022-12-18T05:47:01.871Z,11.02
2022-12-18T05:49:30.480Z,10.52
2022-12-18T05:51:58.750Z,8.38
2022-12-18T05:54:29.244Z,10.68
2022-12-18T05:56:57.456Z,9.95
2022-12-18T05:59:25.442Z,9.20
2022-12-18T06:01:53.850Z,10.38
2022-12-18T06:04:22.220Z,8.63
2022-12-18T06:06:50.826Z,10.15
2022-12-18T06:09:18.770Z,12.60
2022-12-18T06:11:48.166Z,10.48
2022-12-18T06:14:18.181Z,11.80
2022-12-18T06:16:46.234Z,10.98
2022-12-18T06:19:17.320Z,11.18
2022-12-18T06:21:45.337Z,8.95
2022-12-18T06:24:13.926Z,9.80
2022-12-18T06:26:42.576Z,11.20
2022-12-18T06:29:12.110Z,10.80
2022-12-18T06:31:40.469Z,10.50
2022-12-18T06:34:08.453Z,11.27
2022-12-18T06:36:36.759Z,9.27
2022-12-18T06:39:05.517Z,12.07
2022-12-18T06:41:34.299Z,9.50
2022-12-18T06:44:02.543Z,10.88
2022-12-18T06:46:33.300Z,11.65
2022-12-18T06:49:01.471Z,9.30
2022-12-18T06:51:29.484Z,11.60
2022-12-18T06:53:57.842Z,10.57
2022-12-18T06:56:26.195Z,13.43
2022-12-18T06:58:54.472Z,11.35
2022-12-18T07:01:23.053Z,9.82
2022-12-18T07:03:55.817Z,9.90
2022-12-18T07:06:26.105Z,10.40
2022-12-18T07:08:56.575Z,11.27
2022-12-18T07:11:25.310Z,8.38
2022-12-18T07:13:54.830Z,10.63
2022-12-18T07:16:25.538Z,10.75
2022-12-18T07:18:56.936Z,12.23
2022-12-18T07:21:26.258Z,9.40
2022-12-18T07:23:54.912Z,8.63
2022-12-18T07:26:24.190Z,11.65
2022-12-18T07:28:52.654Z,11.20
2022-12-18T07:31:23.096Z,10.43
2022-12-18T07:33:52.746Z,12.40
2022-12-18T07:36:22.592Z,12.35
2022-12-18T07:38:52.562Z,13.55
2022-12-18T07:41:20.848Z,12.90
2022-12-18T07:43:49.815Z,14.32
2022-12-18T07:46:18.707Z,10.40
2022-12-18T07:48:49.722Z,12.02
2022-12-18T07:51:20.066Z,11.57
2022-12-18T07:53:52.242Z,11.95
2022-12-18T07:56:28.188Z,11.10
2022-12-18T07:58:57.131Z,10.70
2022-12-18T08:01:25.806Z,11.55
2022-12-18T08:03:54.283Z,12.77
2022-12-18T08:06:24.496Z,11.05
2022-12-18T08:08:55.530Z,11.35
2022-12-18T08:11:24.960Z,11.05
2022-12-18T08:13:52.936Z,11.02
2022-12-18T08:16:21.994Z,11.07
2022-12-18T08:18:50.915Z,9.02
2022-12-18T08:21:22.123Z,10.70
2022-12-18T08:23:52.088Z,10.27
2022-12-18T08:26:22.626Z,10.32
2022-12-18T08:28:51.390Z,9.07
2022-12-18T08:31:19.821Z,11.50
2022-12-18T08:33:51.605Z,11.15
2022-12-18T08:36:20.384Z,8.63
2022-12-18T08:38:48.809Z,10.65
2022-12-18T08:41:19.654Z,11.40
2022-12-18T08:44:06.575Z,11.30
2022-12-18T08:46:37.607Z,10.38
2022-12-18T08:49:06.768Z,11.25
2022-12-18T08:51:35.664Z,12.40
2022-12-18T08:54:04.321Z,11.75
2022-12-18T08:56:35.264Z,11.40
2022-12-18T08:59:05.543Z,10.90
2022-12-18T09:01:33.746Z,11.25
2022-12-18T09:04:03.091Z,11.48
2022-12-18T09:06:31.109Z,11.88
2022-12-18T09:08:59.292Z,11.68
2022-12-18T09:11:29.875Z,11.23
2022-12-18T09:14:00.031Z,9.43
2022-12-18T09:16:32.519Z,11.20
2022-12-18T09:19:01.651Z,11.88
2022-12-18T09:21:33.468Z,11.50
2022-12-18T09:24:08.663Z,10.32
2022-12-18T09:26:37.670Z,11.95
2022-12-18T09:29:08.089Z,9.88
2022-12-18T09:31:38.271Z,9.77
2022-12-18T09:34:07.543Z,11.07
2022-12-18T09:36:36.082Z,8.63
2022-12-18T09:39:08.137Z,7.40
2022-12-18T09:41:45.116Z,9.10
2022-12-18T09:44:22.063Z,8.70
2022-12-18T09:46:58.401Z,11.18
2022-12-18T09:49:31.559Z,8.57
2022-12-18T09:52:04.272Z,9.90
2022-12-18T09:54:37.845Z,9.80
2022-12-18T09:57:06.436Z,10.00
2022-12-18T09:59:38.895Z,9.10
2022-12-18T10:02:20.238Z,10.38
2022-12-18T10:04:56.685Z,10.48
2022-12-18T10:07:32.249Z,9.20
2022-12-18T10:10:07.597Z,13.52
2022-12-18T10:12:46.104Z,11.20
2022-12-18T10:15:26.253Z,9.90
2022-12-18T10:18:03.607Z,9.00
2022-12-18T10:20:37.044Z,9.32
2022-12-18T10:23:13.544Z,9.88
2022-12-18T10:25:54.382Z,10.18
2022-12-18T10:28:22.699Z,8.95
2022-12-18T10:30:51.163Z,9.50
2022-12-18T10:33:23.106Z,10.10
2022-12-18T10:35:55.376Z,10.75
2022-12-18T10:38:26.834Z,9.68
2022-12-18T10:40:57.799Z,9.90
2022-12-18T10:43:28.717Z,8.75
2022-12-18T10:46:16.851Z,10.35
2022-12-18T10:48:57.624Z,9.80
2022-12-18T10:51:31.413Z,7.65
2022-12-18T10:54:03.233Z,10.13
2022-12-18T10:56:35.637Z,10.00
2022-12-18T10:59:06.294Z,9.68
2022-12-18T11:01:49.857Z,9.07
2022-12-18T11:04:22.711Z,9.27
2022-12-18T11:06:59.883Z,9.75
2022-12-18T11:09:29.620Z,9.85
2022-12-18T11:12:01.284Z,10.88
2022-12-18T11:14:31.422Z,10.77
2022-12-18T11:19:56.505Z,9.02
2022-12-18T11:22:28.787Z,10.63
2022-12-18T11:27:54.836Z,10.98
2022-12-18T11:30:25.051Z,11.52
2022-12-18T11:32:57.788Z,10.77
2022-12-18T11:35:39.950Z,10.32
2022-12-18T11:38:19.527Z,10.02
2022-12-18T11:40:53.557Z,10.80
2022-12-18T11:43:28.260Z,11.00
2022-12-18T11:46:01.661Z,11.18
2022-12-18T11:48:35.914Z,11.57
2022-12-18T11:51:11.838Z,9.40
2022-12-18T11:53:41.071Z,9.88
2022-12-18T11:56:29.814Z,12.98
2022-12-18T11:59:06.499Z,10.93
2022-12-18T12:01:47.446Z,12.93
2022-12-18T12:04:37.327Z,11.63
2022-12-18T12:07:20.368Z,11.77
2022-12-18T12:09:58.559Z,13.73
2022-12-18T12:12:49.103Z,14.38
2022-12-18T12:15:28.299Z,12.57
2022-12-18T12:18:06.937Z,12.25
2022-12-18T12:20:50.215Z,11.18
2022-12-18T12:23:29.634Z,10.45
2022-12-18T12:26:03.757Z,10.77
2022-12-18T12:28:52.373Z,12.60
2022-12-18T12:31:34.619Z,10.02
2022-12-18T12:34:12.084Z,10.85
2022-12-18T12:36:54.828Z,9.77
2022-12-18T12:39:31.716Z,10.93
2022-12-18T12:42:18.164Z,10.20
2022-12-18T12:44:55.633Z,9.18
2022-12-18T12:47:31.757Z,10.52
2022-12-18T12:50:02.324Z,11.35
2022-12-18T12:52:37.000Z,9.95
2022-12-18T12:55:17.149Z,10.18
2022-12-18T12:57:50.178Z,11.02
2022-12-18T13:00:22.052Z,10.88
2022-12-18T13:02:58.936Z,9.80
2022-12-18T13:05:32.393Z,10.85
2022-12-18T13:08:05.232Z,11.23
2022-12-18T13:10:39.274Z,8.82
2022-12-18T13:13:09.052Z,10.02
2022-12-18T13:15:42.009Z,12.40
2022-12-18T13:18:23.588Z,12.65
2022-12-18T13:21:04.017Z,12.60
2022-12-18T13:23:37.704Z,13.32
2022-12-18T13:26:34.034Z,12.13
2022-12-18T13:29:07.317Z,10.65
2022-12-18T13:32:03.223Z,10.80
2022-12-18T13:34:33.384Z,14.30
2022-12-18T13:37:35.776Z,11.40
2022-12-18T13:40:06.617Z,11.38
2022-12-18T13:43:04.823Z,9.35
2022-12-18T13:45:48.509Z,8.68
2022-12-18T13:48:23.584Z,12.43
2022-12-18T13:50:55.946Z,10.00
2022-12-18T13:53:28.558Z,10.70
2022-12-18T13:55:57.173Z,10.63
2022-12-18T13:58:27.322Z,9.48
2022-12-18T14:00:55.497Z,12.85
2022-12-18T14:03:27.178Z,11.35
2022-12-18T14:05:58.795Z,12.30
2022-12-18T14:08:32.301Z,10.10
2022-12-18T14:11:01.661Z,13.45
2022-12-18T14:13:34.994Z,9.00
2022-12-18T14:16:05.360Z,10.93
2022-12-18T14:18:41.183Z,11.57
2022-12-18T14:21:20.544Z,12.57
2022-12-18T14:23:49.292Z,10.35
2022-12-18T14:26:28.239Z,11.07
2022-12-18T14:28:58.519Z,11.63
2022-12-18T14:31:29.161Z,13.88
2022-12-18T14:33:57.998Z,12.30
2022-12-18T14:36:27.605Z,10.73
2022-12-18T14:38:57.125Z,14.82
2022-12-18T14:41:26.844Z,12.15
2022-12-18T14:44:06.950Z,13.77
2022-12-18T14:46:37.801Z,11.05
2022-12-18T14:49:20.139Z,11.60
2022-12-18T14:51:51.154Z,12.80
2022-12-18T14:54:21.299Z,11.85
2022-12-18T14:56:52.204Z,13.35
2022-12-18T14:59:26.958Z,11.65
2022-12-18T15:02:03.215Z,10.88
2022-12-18T15:04:36.723Z,11.98
2022-12-18T15:07:09.922Z,14.07
2022-12-18T15:09:39.055Z,11.32
2022-12-18T15:12:07.861Z,11.15
2022-12-18T15:14:43.160Z,11.25
2022-12-18T15:17:20.051Z,13.13
2022-12-18T15:19:50.383Z,13.88
2022-12-18T15:22:22.831Z,12.50
2022-12-18T15:24:52.561Z,14.55
2022-12-18T15:27:26.180Z,12.38
2022-12-18T15:30:20.032Z,15.43
2022-12-18T15:32:49.942Z,13.65
2022-12-18T15:35:21.175Z,15.82
2022-12-18T15:37:49.980Z,13.07
2022-12-18T15:40:20.013Z,14.98
2022-12-18T15:43:07.208Z,13.52
2022-12-18T15:45:37.296Z,14.40
2022-12-18T15:48:15.666Z,14.40
2022-12-18T15:50:43.759Z,15.13
2022-12-18T15:53:12.066Z,15.43
2022-12-18T15:56:00.992Z,17.55
2022-12-18T15:58:29.773Z,14.80
2022-12-18T16:01:01.686Z,14.05
2022-12-18T16:03:30.321Z,13.40
2022-12-18T16:06:01.282Z,14.60
2022-12-18T16:08:30.866Z,13.90
2022-12-18T16:11:00.004Z,15.35
2022-12-18T16:13:28.062Z,12.50
2022-12-18T16:15:56.270Z,13.15
2022-12-18T16:18:26.110Z,14.15
2022-12-18T16:20:54.424Z,15.30
2022-12-18T16:23:22.458Z,14.45
2022-12-18T16:25:50.422Z,13.63
2022-12-18T16:28:18.906Z,14.45
2022-12-18T16:30:47.190Z,12.20
2022-12-18T16:33:16.328Z,11.38
2022-12-18T16:35:53.743Z,13.90
2022-12-18T16:38:22.192Z,11.75
2022-12-18T16:41:13.245Z,12.73
2022-12-18T16:43:41.514Z,15.18
2022-12-18T16:46:10.059Z,13.75
2022-12-18T16:48:39.005Z,16.30
2022-12-18T16:51:08.751Z,15.20
2022-12-18T16:53:37.020Z,16.60
2022-12-18T16:56:05.348Z,15.88
2022-12-18T16:58:34.638Z,14.57
2022-12-18T17:01:08.548Z,13.32
2022-12-18T17:03:37.086Z,10.98
2022-12-18T17:06:06.833Z,12.90
2022-12-18T17:08:36.508Z,13.88
2022-12-18T17:11:08.862Z,12.05
2022-12-18T17:13:37.080Z,10.98
2022-12-18T17:16:06.616Z,11.77
2022-12-18T17:18:36.496Z,12.75
2022-12-18T17:21:06.682Z,13.40
2022-12-18T17:23:37.266Z,12.13
2022-12-18T17:26:07.301Z,13.13
2022-12-18T17:28:36.038Z,13.82
2022-12-18T17:31:11.374Z,12.02
2022-12-18T17:33:40.074Z,12.05
2022-12-18T17:36:08.947Z,14.77
2022-12-18T17:38:39.332Z,14.55
2022-12-18T17:41:09.041Z,14.18
2022-12-18T17:43:39.686Z,16.30
2022-12-18T17:46:08.059Z,14.73
2022-12-18T17:48:37.712Z,12.13
2022-12-18T17:51:09.655Z,13.32
2022-12-18T17:53:41.607Z,15.52
2022-12-18T17:56:14.135Z,13.85
2022-12-18T17:58:42.994Z,12.73
2022-12-18T18:01:14.600Z,13.77
2022-12-18T18:03:44.727Z,14.48
2022-12-18T18:06:13.280Z,11.75
2022-12-18T18:08:43.324Z,13.60
2022-12-18T18:11:32.372Z,13.02
2022-12-18T18:14:04.710Z,14.63
2022-12-18T18:16:35.508Z,12.63
2022-12-18T18:19:08.221Z,9.10
2022-12-18T18:21:39.321Z,12.45
2022-12-18T18:24:12.843Z,10.73
2022-12-18T18:26:42.712Z,12.43
2022-12-18T18:29:19.108Z,11.13
2022-12-18T18:31:47.666Z,10.23
2022-12-18T18:34:17.255Z,9.85
2022-12-18T18:36:46.922Z,9.52
2022-12-18T18:39:16.524Z,9.38
2022-12-18T18:41:47.873Z,9.05
2022-12-18T18:44:17.732Z,9.18
2022-12-18T18:46:46.044Z,6.93
2022-12-18T18:49:15.261Z,8.20
2022-12-18T18:51:43.534Z,9.73
2022-12-18T18:54:12.215Z,8.73
2022-12-18T18:59:32.037Z,10.23
2022-12-18T19:02:04.413Z,8.23
2022-12-18T19:04:33.832Z,8.60
2022-12-18T19:07:03.296Z,8.90
2022-12-18T19:09:32.009Z,8.52
2022-12-18T19:12:19.264Z,10.63
2022-12-18T19:14:47.410Z,9.68
2022-12-18T19:17:15.647Z,9.57
2022-12-18T19:19:43.985Z,11.57
2022-12-18T19:22:12.695Z,11.35
2022-12-18T19:24:41.074Z,11.63
2022-12-18T19:27:11.020Z,10.88
2022-12-18T19:29:39.192Z,11.02
2022-12-18T19:32:07.462Z,10.30
2022-12-18T19:34:35.504Z,10.82
2022-12-18T19:37:03.690Z,10.05
2022-12-18T19:39:31.614Z,10.30
2022-12-18T19:41:59.577Z,10.85
2022-12-18T19:44:29.243Z,11.65
2022-12-18T19:46:57.140Z,11.13
2022-12-18T19:49:25.074Z,10.52
2022-12-18T19:51:53.150Z,10.20
2022-12-18T19:54:21.164Z,10.25
2022-12-18T19:56:49.204Z,12.95
2022-12-18T19:59:17.248Z,11.27
2022-12-18T20:01:47.042Z,12.80
2022-12-18T20:04:15.266Z,12.85
2022-12-18T20:06:50.965Z,12.38
2022-12-18T20:09:20.369Z,15.95
2022-12-18T20:11:50.246Z,11.95
2022-12-18T20:14:22.883Z,13.05
2022-12-18T20:16:54.419Z,10.05
2022-12-18T20:19:23.594Z,9.90
2022-12-18T20:21:52.626Z,12.93
2022-12-18T20:24:20.692Z,9.90
2022-12-18T20:26:48.936Z,13.63
2022-12-18T20:29:17.248Z,11.45
2022-12-18T20:31:45.793Z,12.73
2022-12-18T20:34:15.636Z,13.43
2022-12-18T20:36:44.207Z,11.38
2022-12-18T20:39:13.465Z,11.80
2022-12-18T20:41:42.586Z,12.15
2022-12-18T20:44:21.750Z,9.95
2022-12-18T20:46:53.821Z,11.05
2022-12-18T20:49:24.300Z,9.30
2022-12-18T20:51:53.392Z,9.68
2022-12-18T20:54:22.292Z,11.45
2022-12-18T20:56:50.792Z,10.07
2022-12-18T20:59:19.775Z,9.65
2022-12-18T21:01:49.452Z,9.63
2022-12-18T21:04:18.988Z,9.45
2022-12-18T21:06:53.300Z,11.18
2022-12-18T21:09:24.096Z,9.38
2022-12-18T21:12:10.371Z,9.85
2022-12-18T21:14:42.820Z,8.15
2022-12-18T21:17:11.503Z,9.73
2022-12-18T21:19:40.004Z,11.68
2022-12-18T21:22:11.236Z,8.40
2022-12-18T21:24:39.810Z,10.85
2022-12-18T21:27:07.832Z,10.65
2022-12-18T21:29:36.328Z,10.38
2022-12-18T21:32:05.501Z,11.48
2022-12-18T21:34:34.277Z,12.18
2022-12-18T21:37:03.232Z,12.07
2022-12-18T21:39:32.831Z,12.95
2022-12-18T21:42:19.383Z,13.32
2022-12-18T21:44:49.343Z,11.75
2022-12-18T21:47:21.849Z,12.38
2022-12-18T21:49:52.643Z,11.70
2022-12-18T21:52:27.296Z,12.52
2022-12-18T21:55:08.376Z,13.57
2022-12-18T21:57:38.119Z,7.95
2022-12-18T22:00:07.496Z,12.70
2022-12-18T22:02:41.607Z,9.43
2022-12-18T22:05:10.338Z,11.13
2022-12-18T22:07:39.099Z,11.52
2022-12-18T22:10:10.609Z,9.25
2022-12-18T22:12:43.557Z,7.43
2022-12-18T22:15:20.310Z,10.82
2022-12-18T22:17:59.743Z,10.88
2022-12-18T22:20:29.514Z,7.65
2022-12-18T22:22:58.750Z,11.50
2022-12-18T22:25:31.081Z,11.45
2022-12-18T22:28:16.561Z,9.95
2022-12-18T22:30:44.797Z,10.60
2022-12-18T22:33:12.822Z,10.18
2022-12-18T22:35:41.190Z,12.38
2022-12-18T22:38:09.165Z,10.60
2022-12-18T22:40:38.520Z,9.63
2022-12-18T22:43:06.646Z,12.68
2022-12-18T22:45:35.703Z,9.73
2022-12-18T22:48:07.555Z,8.95
2022-12-18T22:50:35.541Z,12.65
2022-12-18T22:53:03.514Z,6.28
2022-12-18T22:55:31.543Z,9.90
2022-12-18T22:58:01.154Z,9.55
2022-12-18T23:00:29.727Z,10.48
2022-12-18T23:03:00.731Z,12.48
2022-12-18T23:05:31.360Z,14.80
2022-12-18T23:07:59.791Z,13.55
2022-12-18T23:10:28.728Z,14.05
2022-12-18T23:12:56.788Z,12.75
2022-12-18T23:15:27.810Z,14.77
2022-12-18T23:17:58.755Z,13.75
2022-12-18T23:20:28.427Z,14.75
2022-12-18T23:22:56.628Z,13.43
2022-12-18T23:25:25.976Z,14.13
2022-12-18T23:27:54.241Z,14.02
2022-12-18T23:30:22.272Z,13.95
2022-12-18T23:32:51.727Z,14.52
2022-12-18T23:35:20.147Z,12.13
2022-12-18T23:38:04.484Z,14.13
2022-12-18T23:40:33.191Z,12.10
2022-12-18T23:43:01.220Z,15.25
2022-12-18T23:45:29.246Z,17.90
2022-12-18T23:47:59.131Z,14.77
2022-12-18T23:50:29.382Z,15.65
2022-12-18T23:53:04.596Z,14.35
2022-12-18T23:55:41.005Z,13.57
2022-12-18T23:58:16.168Z,12.57
